Oakland, California
Current Conditions -  °F | °C
As of 3:53 AM on Monday 24 Nov 2014 (Local Time) from KOAK Reporting Station
Clear Clear  
Wind Chill: 45°   Ceiling: Unl
Heat Index: 45°   Visibility: 10mi
Dew Point: 38°   Wind: 0mph
Humidity: 76%   Direction: NA
Pressure: 30.32"   Gusts: NA
Location:  37.81°N, 122.27°W
Report Text: KOAK 241153Z 00000KT 10SM CLR 07/03 A3032 RMK AO2 SLP267 T00720033 10106 20050 58002 $
Loading
Personal Weather Stations






























Interactive Weather Map New forecast layout! Learn more

10-Day Weather Forecast

Advertisements
Track Severe Weather on mobile